• Join FlightAware (Why Join?)
  • Login
  • US Flag 
12:27AM EDT


 

Airport Tracker/Info


-or-


 

Live Flight TrackerFlight Track Log ✈ USC110 ✈ 07-Jun-2013 ✈ KBKL - KYIP

Flight Track Log - Related Links

Times and Time Zones

All times are in EDT time to prevent confusion due to time zone crossing. See the USC110 flight status page for this flight to view local times or setup timezone preferences in your user account.

Time Position Orientation Groundspeed Altitude Reporting Facility
EDT Latitude Longitude Course Direction KTS MPH feet Rate Location/Type
11:12PM 41.5356 -81.7039 337° Northwest 88 101 2,400  Level Cleveland Center
11:13PM 41.5564 -81.7097 348° North 82 94 3,800 1,320 Climbing Cleveland Center
11:14PM 41.5664 -81.7458 290° West 96 110 5,100 1,200 Climbing Cleveland Center
11:15PM 41.5764 -81.7739 295° West 90 104 6,300 1,200 Climbing Cleveland Center
11:16PM 41.5867 -81.8019 296° West 88 101 7,600 780 Climbing Cleveland Center
11:17PM 41.6028 -81.8411 299° West 135 155 8,000 180 Climbing Cleveland Center
11:18PM 41.6231 -81.8914 298° West 161 185 8,000  Level Cleveland Center
11:19PM 41.6414 -81.9447 295° West 156 180 8,000 660 Level Cleveland Center
11:20PM 41.6594 -81.9894 298° West 98 113 9,400 960 Climbing Cleveland Center
11:21PM 41.6694 -82.0203 293° West 106 122 10,000 240 Climbing Cleveland Center
11:22PM 41.6917 -82.0708 300° West 174 200 10,000  Level Cleveland Center
11:23PM 41.7119 -82.1242 297° West 162 186 10,000  Level Cleveland Center
11:25PM 41.7561 -82.2364 298° West 166 191 10,000  Level Cleveland Center
11:27PM 41.7784 -82.3092 292° West  Level FlightAware Approximate
11:28PM 41.8083 -82.3717 292° West 159 183 10,000  Level Cleveland Center
11:29PM 41.8264 -82.4250 294° West 160 184 10,000  Level Cleveland Center
11:29PM 41.8322 -82.4392 299° West 156 180 10,000  Level Cleveland Center
11:30PM 41.8483 -82.4814 297° West 159 183 10,000  Level Cleveland Center
11:31PM 41.8683 -82.5350 297° West 157 181 10,000  Level Cleveland Center
11:31PM 41.8722 -82.5436 301° West 156 180 10,000  Level Cleveland Center
11:32PM 41.8861 -82.5886 293° West 159 183 10,000  Level Cleveland Center
11:32PM 41.8961 -82.6111 301° West 160 184 10,000  Level Cleveland Center
11:33PM 41.9081 -82.6394 300° West 159 183 10,000  Level Cleveland Center
11:34PM 41.9281 -82.6931 297° West 161 185 10,000  Level Cleveland Center
11:34PM 41.9319 -82.7044 295° West 156 180 10,000  Level Cleveland Center
11:35PM 41.9500 -82.7469 300° West 159 183 10,000  Level Cleveland Center
11:35PM 41.9519 -82.7581 283° West 156 180 10,000  Level Cleveland Center
11:36PM 41.9697 -82.7978 301° West 161 185 10,000  Level Cleveland Center
11:36PM 41.9717 -82.8092 283° West 156 180 10,000  Level Cleveland Center
11:37PM 41.9833 -82.8569 288° West 165 190 10,000  Level Cleveland Center
11:37PM 41.9872 -82.8739 287° West 154 177 10,000  Level Cleveland Center
11:38PM 41.9906 -82.9047 278° West 158 182 10,000  Level Cleveland Center
11:38PM 41.9964 -82.9300 287° West 162 186 10,000  Level Cleveland Center
11:39PM 42.0039 -82.9750 283° West 160 184 10,000  Level Cleveland Center
11:39PM 42.0056 -82.9919 278° West 163 188 10,000  Level Cleveland Center
11:40PM 42.0111 -83.0283 282° West 159 183 10,000  Level Cleveland Center
11:40PM 42.0167 -83.0511 288° West 161 185 10,000  Level Cleveland Center
11:41PM 42.0222 -83.0875 282° West 163 188 10,000 -300 Level Cleveland Center
11:41PM 42.0239 -83.1100 276° West 161 185 9,700 -1,140 Descending Cleveland Center
11:42PM 42.0336 -83.1439 291° West 178 205 9,000 -1,320 Descending Cleveland Center
11:42PM 42.0369 -83.1778 278° West 179 206 8,400 -1,200 Descending Cleveland Center
11:43PM 42.0425 -83.2114 283° West 186 214 7,800 -1,320 Descending Cleveland Center
11:43PM 42.0458 -83.2453 278° West 188 216 7,100 -1,380 Descending Cleveland Center
11:44PM 42.0514 -83.2789 283° West 179 206 6,400 -1,320 Descending Cleveland Center
11:45PM 42.0642 -83.3494 284° West 178 205 5,200 -660 Descending Cleveland Center
11:46PM 42.0747 -83.4311 280° West 172 198 5,000 -480 Descending Cleveland Center
11:47PM 42.0986 -83.4797 304° West 174 200 4,300 -900 Descending Cleveland Center
11:48PM 42.1325 -83.5344 310° West 178 205 3,200 -1,020 Descending Cleveland Center
11:49PM 42.1717 -83.5586 335° Northwest 163 188 2,300 -1,020 Descending Cleveland Center
11:51PM 42.2333 -83.5167 North  Level FlightAware Approximate
11:58PM 42.2393 -83.5310 North  Level Estimated
11:59PM 42.2393 -83.5310 North  Level Estimated